SWR12E EDDH-EDDS
Flight info
| Callsign | SWR12E |
|---|---|
| Flight time | N/A |
| Altitude | 35000 |
| Route | IDEKO8B IDEKO N850 NIE DCT BERXO DCT SILWE DCT OSBIT P605 TOSTU T726 LBU |
| Aircraft | A320/M-SDE3FGHIRWY/LB1 |
Departure
| Time | 2026-05-01 13:07 |
|---|---|
| Airport | Hamburg Helmut Schmidt Airport (EDDH) |
Arrival
| Time | N/A |
|---|---|
| Airport | Stuttgart Airport (EDDS) |
| Time | Latitude | Longitude | Altitude | Speed | Heading |
|---|---|---|---|---|---|
| 2026-05-01 12:41 | 53.63333 | 10.00364 | 46 ft | 0 kts | 83° |
| 2026-05-01 12:52 | 53.63330 | 10.00329 | 46 ft | 2 kts | 83° |
| 2026-05-01 12:52 | 53.63328 | 10.00301 | 41 ft | 2 kts | 83° |
| 2026-05-01 12:53 | 53.63324 | 10.00244 | 42 ft | 2 kts | 65° |
| 2026-05-01 12:53 | 53.63318 | 10.00228 | 43 ft | 0 kts | 15° |
| 2026-05-01 12:55 | 53.63333 | 10.00230 | 46 ft | 9 kts | 7° |
| 2026-05-01 12:55 | 53.63405 | 10.00229 | 46 ft | 10 kts | 353° |
| 2026-05-01 12:55 | 53.63468 | 10.00211 | 46 ft | 9 kts | 340° |
| 2026-05-01 12:56 | 53.63513 | 10.00158 | 46 ft | 7 kts | 320° |
| 2026-05-01 12:56 | 53.63538 | 10.00121 | 46 ft | 0 kts | 319° |
| 2026-05-01 12:57 | 53.63556 | 10.00094 | 46 ft | 6 kts | 318° |
| 2026-05-01 12:58 | 53.63599 | 10.00032 | 47 ft | 9 kts | 318° |
| 2026-05-01 12:58 | 53.63600 | 9.99959 | 44 ft | 0 kts | 232° |
| 2026-05-01 13:07 | 53.48187 | 9.72716 | 7143 ft | 266 kts | 197° |
| 2026-05-01 13:07 | 53.46430 | 9.71707 | 7657 ft | 268 kts | 197° |
| 2026-05-01 13:07 | 53.44664 | 9.70699 | 8173 ft | 269 kts | 197° |
| 2026-05-01 13:08 | 53.42883 | 9.69685 | 8685 ft | 271 kts | 196° |
| 2026-05-01 13:08 | 53.41092 | 9.68665 | 9217 ft | 273 kts | 196° |
| 2026-05-01 13:08 | 53.39282 | 9.67635 | 9770 ft | 276 kts | 196° |
| 2026-05-01 13:08 | 53.37424 | 9.66574 | 10322 ft | 286 kts | 196° |
| 2026-05-01 13:09 | 53.35503 | 9.65482 | 10825 ft | 304 kts | 196° |
| 2026-05-01 13:09 | 53.33446 | 9.64315 | 11331 ft | 319 kts | 196° |
| 2026-05-01 13:09 | 53.31320 | 9.63110 | 11853 ft | 324 kts | 196° |
| 2026-05-01 13:09 | 53.29173 | 9.61888 | 12376 ft | 327 kts | 196° |
| 2026-05-01 13:10 | 53.27006 | 9.60651 | 12910 ft | 330 kts | 196° |
| 2026-05-01 13:10 | 53.24824 | 9.59408 | 13457 ft | 333 kts | 196° |
| 2026-05-01 13:10 | 53.22625 | 9.58157 | 14007 ft | 336 kts | 196° |
| 2026-05-01 13:10 | 53.20401 | 9.56896 | 14513 ft | 338 kts | 196° |
| 2026-05-01 13:11 | 53.18161 | 9.55626 | 15022 ft | 341 kts | 197° |
| 2026-05-01 13:11 | 53.16670 | 9.54781 | 15357 ft | 344 kts | 197° |
| 2026-05-01 13:11 | 53.13621 | 9.53053 | 16061 ft | 348 kts | 197° |
| 2026-05-01 13:11 | 53.12096 | 9.52191 | 16399 ft | 350 kts | 197° |
| 2026-05-01 13:12 | 53.09779 | 9.50885 | 16916 ft | 353 kts | 197° |
| 2026-05-01 13:12 | 53.07440 | 9.49569 | 17479 ft | 357 kts | 197° |
| 2026-05-01 13:12 | 53.05074 | 9.48241 | 18028 ft | 360 kts | 197° |
| 2026-05-01 13:12 | 53.02691 | 9.46905 | 18609 ft | 363 kts | 197° |
| 2026-05-01 13:13 | 53.00297 | 9.45570 | 19294 ft | 363 kts | 195° |
| 2026-05-01 13:13 | 52.97829 | 9.44699 | 19990 ft | 363 kts | 186° |
| 2026-05-01 13:13 | 52.95324 | 9.44173 | 20705 ft | 363 kts | 186° |
| 2026-05-01 13:13 | 52.92823 | 9.43642 | 21437 ft | 363 kts | 186° |
| 2026-05-01 13:14 | 52.90320 | 9.43104 | 22185 ft | 362 kts | 185° |
| 2026-05-01 13:14 | 52.87822 | 9.42569 | 22959 ft | 361 kts | 186° |
| 2026-05-01 13:14 | 52.85332 | 9.42039 | 23756 ft | 360 kts | 185° |
| 2026-05-01 13:14 | 52.82854 | 9.41517 | 24457 ft | 358 kts | 186° |
| 2026-05-01 13:15 | 52.80403 | 9.41001 | 25142 ft | 355 kts | 185° |
| 2026-05-01 13:15 | 52.77964 | 9.40484 | 25848 ft | 351 kts | 185° |
| 2026-05-01 13:15 | 52.75553 | 9.39971 | 26576 ft | 347 kts | 186° |
| 2026-05-01 13:15 | 52.73175 | 9.39461 | 27321 ft | 342 kts | 185° |
| 2026-05-01 13:16 | 52.70867 | 9.38966 | 28075 ft | 336 kts | 186° |
| 2026-05-01 13:16 | 52.68570 | 9.38477 | 28859 ft | 329 kts | 186° |
| 2026-05-01 13:16 | 52.66325 | 9.38003 | 29658 ft | 321 kts | 186° |
| 2026-05-01 13:17 | 52.59501 | 9.38337 | 30381 ft | 344 kts | 167° |
| 2026-05-01 13:17 | 52.57116 | 9.39240 | 30388 ft | 360 kts | 165° |
| 2026-05-01 13:18 | 52.52021 | 9.41175 | 30384 ft | 391 kts | 166° |
| 2026-05-01 13:18 | 52.49323 | 9.42188 | 30384 ft | 405 kts | 166° |
| 2026-05-01 13:18 | 52.46534 | 9.43234 | 30386 ft | 417 kts | 166° |
| 2026-05-01 13:18 | 52.43714 | 9.44291 | 30381 ft | 429 kts | 166° |
| 2026-05-01 13:19 | 52.37704 | 9.46535 | 30382 ft | 449 kts | 166° |
| 2026-05-01 13:20 | 52.28409 | 9.49967 | 30378 ft | 460 kts | 166° |
| 2026-05-01 13:20 | 52.22153 | 9.52283 | 30371 ft | 461 kts | 167° |
| 2026-05-01 13:21 | 52.12821 | 9.55719 | 30370 ft | 460 kts | 166° |
| 2026-05-01 13:21 | 52.06557 | 9.58019 | 30369 ft | 461 kts | 166° |
| 2026-05-01 13:22 | 52.00286 | 9.60307 | 30373 ft | 462 kts | 167° |
| 2026-05-01 13:22 | 51.94002 | 9.62594 | 30363 ft | 463 kts | 166° |
| 2026-05-01 13:23 | 51.87719 | 9.64884 | 30363 ft | 463 kts | 167° |
| 2026-05-01 13:23 | 51.81437 | 9.67167 | 30361 ft | 463 kts | 167° |
| 2026-05-01 13:24 | 51.75146 | 9.69444 | 30361 ft | 463 kts | 166° |
| 2026-05-01 13:25 | 51.65685 | 9.72847 | 30363 ft | 465 kts | 166° |
| 2026-05-01 13:25 | 51.59367 | 9.75121 | 30373 ft | 465 kts | 166° |
| 2026-05-01 13:26 | 51.53051 | 9.77390 | 30369 ft | 465 kts | 167° |
| 2026-05-01 13:26 | 51.46773 | 9.79638 | 30362 ft | 465 kts | 167° |
| 2026-05-01 13:27 | 51.40415 | 9.81891 | 30363 ft | 465 kts | 167° |
| 2026-05-01 13:27 | 51.30965 | 9.85233 | 30366 ft | 466 kts | 167° |
| 2026-05-01 13:28 | 51.21412 | 9.88020 | 30352 ft | 467 kts | 178° |
| 2026-05-01 13:29 | 51.08397 | 9.86975 | 30350 ft | 470 kts | 182° |
| 2026-05-01 13:31 | 50.88818 | 9.85291 | 30356 ft | 470 kts | 182° |
| 2026-05-01 13:32 | 50.72473 | 9.83862 | 30353 ft | 470 kts | 183° |
| 2026-05-01 13:33 | 50.56104 | 9.82458 | 30347 ft | 473 kts | 182° |
| 2026-05-01 13:34 | 50.42997 | 9.81335 | 30350 ft | 473 kts | 182° |
| 2026-05-01 13:35 | 50.33130 | 9.80501 | 30349 ft | 474 kts | 182° |
| 2026-05-01 13:36 | 50.23253 | 9.79658 | 30357 ft | 474 kts | 182° |
| 2026-05-01 13:36 | 50.13361 | 9.78846 | 30350 ft | 474 kts | 182° |
| 2026-05-01 13:37 | 50.06756 | 9.78353 | 30340 ft | 474 kts | 179° |
| 2026-05-01 13:37 | 50.00172 | 9.78739 | 30342 ft | 473 kts | 177° |
| 2026-05-01 13:38 | 49.90308 | 9.79381 | 30345 ft | 475 kts | 177° |
| 2026-05-01 13:39 | 49.83712 | 9.79811 | 29672 ft | 468 kts | 177° |
| 2026-05-01 13:39 | 49.80535 | 9.80010 | 29052 ft | 446 kts | 177° |
| 2026-05-01 13:39 | 49.77488 | 9.80201 | 28453 ft | 434 kts | 176° |
| 2026-05-01 13:39 | 49.74488 | 9.80389 | 27868 ft | 429 kts | 176° |
| 2026-05-01 13:40 | 49.71521 | 9.80575 | 27291 ft | 423 kts | 176° |
| 2026-05-01 13:40 | 49.68592 | 9.80747 | 26721 ft | 419 kts | 176° |
| 2026-05-01 13:40 | 49.65680 | 9.80893 | 26403 ft | 417 kts | 177° |
| 2026-05-01 13:40 | 49.62787 | 9.81019 | 26328 ft | 416 kts | 177° |
| 2026-05-01 13:41 | 49.59905 | 9.81340 | 26348 ft | 415 kts | 170° |
| 2026-05-01 13:41 | 49.57061 | 9.82102 | 26350 ft | 415 kts | 167° |
| 2026-05-01 13:41 | 49.54218 | 9.82889 | 26351 ft | 415 kts | 168° |
| 2026-05-01 13:41 | 49.51372 | 9.83679 | 26351 ft | 415 kts | 168° |
| 2026-05-01 13:42 | 49.48520 | 9.84470 | 26352 ft | 416 kts | 168° |
| 2026-05-01 13:42 | 49.45680 | 9.85257 | 26355 ft | 414 kts | 168° |
| 2026-05-01 13:42 | 49.42840 | 9.86045 | 26356 ft | 415 kts | 168° |
| 2026-05-01 13:42 | 49.39997 | 9.86830 | 26357 ft | 417 kts | 167° |
| 2026-05-01 13:43 | 49.37138 | 9.87617 | 26355 ft | 417 kts | 168° |
| 2026-05-01 13:43 | 49.34309 | 9.88396 | 26355 ft | 418 kts | 168° |
| 2026-05-01 13:43 | 49.31442 | 9.89184 | 26355 ft | 419 kts | 168° |
| 2026-05-01 13:43 | 49.28572 | 9.89971 | 26353 ft | 418 kts | 168° |
| 2026-05-01 13:44 | 49.25698 | 9.90651 | 26346 ft | 420 kts | 174° |
| 2026-05-01 13:44 | 49.22782 | 9.90479 | 26348 ft | 420 kts | 188° |
| 2026-05-01 13:44 | 49.19967 | 9.89264 | 26327 ft | 422 kts | 202° |
| 2026-05-01 13:44 | 49.17410 | 9.87055 | 26328 ft | 425 kts | 217° |
| 2026-05-01 13:45 | 49.15261 | 9.83979 | 26328 ft | 424 kts | 231° |
| 2026-05-01 13:45 | 49.13638 | 9.80227 | 26329 ft | 423 kts | 245° |
| 2026-05-01 13:45 | 49.12546 | 9.76072 | 26331 ft | 423 kts | 251° |
| 2026-05-01 13:45 | 49.11527 | 9.71848 | 26331 ft | 423 kts | 250° |
| 2026-05-01 13:46 | 49.10518 | 9.67697 | 26328 ft | 421 kts | 250° |
| 2026-05-01 13:46 | 49.09481 | 9.63459 | 26329 ft | 421 kts | 250° |
| 2026-05-01 13:46 | 49.08469 | 9.59328 | 26327 ft | 422 kts | 250° |
| 2026-05-01 13:46 | 49.07444 | 9.55129 | 26325 ft | 422 kts | 250° |
| 2026-05-01 13:47 | 49.06216 | 9.51080 | 26323 ft | 421 kts | 240° |
| 2026-05-01 13:47 | 49.04570 | 9.47381 | 26231 ft | 423 kts | 231° |
| 2026-05-01 13:47 | 49.02566 | 9.44163 | 25799 ft | 420 kts | 220° |
| 2026-05-01 13:47 | 49.00207 | 9.41478 | 25374 ft | 416 kts | 211° |
| 2026-05-01 13:48 | 48.97719 | 9.39375 | 24973 ft | 414 kts | 207° |
| 2026-05-01 13:48 | 48.95194 | 9.37271 | 24565 ft | 414 kts | 211° |
| 2026-05-01 13:48 | 48.92871 | 9.34762 | 24095 ft | 404 kts | 220° |
| 2026-05-01 13:48 | 48.90911 | 9.31817 | 23430 ft | 392 kts | 229° |
| 2026-05-01 13:49 | 48.89301 | 9.28510 | 22560 ft | 386 kts | 238° |
| 2026-05-01 13:49 | 48.87989 | 9.24982 | 21724 ft | 381 kts | 241° |
| 2026-05-01 13:49 | 48.86713 | 9.21492 | 20909 ft | 375 kts | 240° |
| 2026-05-01 13:49 | 48.85449 | 9.18058 | 20107 ft | 370 kts | 240° |
| 2026-05-01 13:50 | 48.84200 | 9.14675 | 19334 ft | 365 kts | 239° |
| 2026-05-01 13:50 | 48.82965 | 9.11334 | 18574 ft | 360 kts | 239° |
| 2026-05-01 13:50 | 48.81748 | 9.08039 | 17729 ft | 356 kts | 239° |
| 2026-05-01 13:50 | 48.80541 | 9.04777 | 16891 ft | 352 kts | 238° |
| 2026-05-01 13:51 | 48.79343 | 9.01543 | 16008 ft | 351 kts | 238° |
| 2026-05-01 13:51 | 48.78149 | 8.98328 | 15146 ft | 350 kts | 239° |
| 2026-05-01 13:51 | 48.76958 | 8.95121 | 14312 ft | 348 kts | 239° |
| 2026-05-01 13:51 | 48.75773 | 8.91931 | 13407 ft | 346 kts | 238° |
| 2026-05-01 13:52 | 48.74601 | 8.88773 | 12503 ft | 342 kts | 238° |
| 2026-05-01 13:52 | 48.73440 | 8.85651 | 11626 ft | 338 kts | 238° |
| 2026-05-01 13:52 | 48.72295 | 8.82574 | 10792 ft | 332 kts | 239° |
| 2026-05-01 13:52 | 48.71187 | 8.79602 | 10443 ft | 312 kts | 238° |
| 2026-05-01 13:53 | 48.70158 | 8.76843 | 10301 ft | 294 kts | 238° |
| 2026-05-01 13:53 | 48.68165 | 8.71532 | 10293 ft | 289 kts | 238° |
| 2026-05-01 13:53 | 48.67178 | 8.68919 | 10292 ft | 290 kts | 238° |
| 2026-05-01 13:54 | 48.66181 | 8.66270 | 10284 ft | 289 kts | 238° |
| 2026-05-01 13:54 | 48.65194 | 8.63635 | 10289 ft | 289 kts | 238° |
| 2026-05-01 13:54 | 48.64201 | 8.60984 | 10288 ft | 289 kts | 238° |
| 2026-05-01 13:54 | 48.63202 | 8.58331 | 10146 ft | 290 kts | 238° |
| 2026-05-01 13:55 | 48.62209 | 8.55701 | 9879 ft | 288 kts | 238° |
| 2026-05-01 13:55 | 48.61218 | 8.53079 | 9605 ft | 287 kts | 238° |
| 2026-05-01 13:55 | 48.60231 | 8.50466 | 9376 ft | 285 kts | 238° |
| 2026-05-01 13:55 | 48.59245 | 8.47871 | 9273 ft | 284 kts | 236° |
| 2026-05-01 13:56 | 48.57962 | 8.45637 | 9083 ft | 282 kts | 215° |
| 2026-05-01 13:56 | 48.56272 | 8.44359 | 8634 ft | 268 kts | 192° |
| 2026-05-01 13:56 | 48.54472 | 8.44173 | 8181 ft | 254 kts | 171° |
| 2026-05-01 13:56 | 48.52823 | 8.44940 | 7734 ft | 245 kts | 151° |
| 2026-05-01 13:57 | 48.51496 | 8.46460 | 7296 ft | 237 kts | 133° |
| 2026-05-01 13:57 | 48.50842 | 8.47800 | 6997 ft | 234 kts | 120° |
| 2026-05-01 13:57 | 48.50226 | 8.50863 | 6897 ft | 235 kts | 96° |
| 2026-05-01 13:57 | 48.50366 | 8.53353 | 6855 ft | 249 kts | 77° |
| 2026-05-01 13:58 | 48.50805 | 8.55029 | 6824 ft | 265 kts | 63° |
| 2026-05-01 13:58 | 48.51879 | 8.57361 | 6773 ft | 278 kts | 56° |
| 2026-05-01 13:58 | 48.53042 | 8.59693 | 6725 ft | 279 kts | 55° |
| 2026-05-01 13:58 | 48.54233 | 8.62047 | 6681 ft | 279 kts | 55° |
| 2026-05-01 13:59 | 48.55396 | 8.64342 | 6620 ft | 278 kts | 55° |
| 2026-05-01 13:59 | 48.56565 | 8.66659 | 6568 ft | 279 kts | 56° |
| 2026-05-01 13:59 | 48.57530 | 8.69184 | 6471 ft | 276 kts | 69° |
| 2026-05-01 13:59 | 48.58218 | 8.71851 | 6132 ft | 267 kts | 72° |
| 2026-05-01 14:00 | 48.58863 | 8.74389 | 5802 ft | 251 kts | 72° |
| 2026-05-01 14:00 | 48.59472 | 8.76791 | 5473 ft | 238 kts | 71° |
| 2026-05-01 14:00 | 48.60053 | 8.79092 | 5149 ft | 231 kts | 70° |
| 2026-05-01 14:00 | 48.60621 | 8.81343 | 4822 ft | 228 kts | 71° |
| 2026-05-01 14:01 | 48.61182 | 8.83570 | 4486 ft | 226 kts | 71° |
| 2026-05-01 14:01 | 48.61746 | 8.85801 | 4161 ft | 227 kts | 71° |
| 2026-05-01 14:01 | 48.62304 | 8.88014 | 3989 ft | 223 kts | 71° |
| 2026-05-01 14:01 | 48.62853 | 8.90188 | 3988 ft | 223 kts | 71° |
| 2026-05-01 14:02 | 48.63349 | 8.92411 | 3980 ft | 223 kts | 72° |